International Virtual Aviation Organisation

Eastern Europe and Northern Asia MCD

 
UUDD 201000Z 10007MPS 9999 SCT042 09/M02 Q1018 RMK WS R14R R88/CLRD60 NOSIG
QNH:(hPa/inHg/mmHg)1018 / 30.06 / 764
QFE:(hPa/inHg/mmHg)996 / 29.41 / 747
Temperature9
Dew Point-2
Visibility> 10000
Weather
Cloud CoverSCT (4200);
Transition Altitude10000 ft.
Transition LevelFL110
SQUAWK